createdAt,value
2023-03-30T00:01:15.391Z,68.20
2023-03-30T00:03:45.867Z,68.21
2023-03-30T00:06:14.818Z,68.25
2023-03-30T00:08:41.565Z,68.19
2023-03-30T00:11:11.787Z,68.58
2023-03-30T00:13:38.848Z,67.88
2023-03-30T00:16:06.965Z,67.44
2023-03-30T00:18:34.521Z,67.25
2023-03-30T00:21:02.890Z,67.00
2023-03-30T00:23:30.042Z,67.34
2023-03-30T00:25:56.655Z,67.52
2023-03-30T00:28:24.077Z,67.01
2023-03-30T00:30:52.865Z,67.29
2023-03-30T00:33:27.598Z,67.14
2023-03-30T00:36:00.709Z,67.31
2023-03-30T00:38:27.663Z,66.83
2023-03-30T00:40:56.543Z,66.43
2023-03-30T00:43:24.308Z,66.17
2023-03-30T00:45:51.956Z,65.93
2023-03-30T00:48:27.490Z,65.88
2023-03-30T00:50:58.631Z,65.88
2023-03-30T00:53:34.301Z,66.07
2023-03-30T00:56:03.639Z,66.04
2023-03-30T00:58:31.321Z,66.13
2023-03-30T01:01:00.751Z,66.17
2023-03-30T01:03:30.630Z,66.77
2023-03-30T01:05:58.989Z,67.09
2023-03-30T01:08:27.238Z,67.48
2023-03-30T01:10:53.934Z,67.56
2023-03-30T01:13:20.583Z,67.53
2023-03-30T01:15:56.289Z,67.54
2023-03-30T01:18:55.235Z,67.68
2023-03-30T01:21:40.838Z,67.78
2023-03-30T01:24:27.727Z,67.82
2023-03-30T01:26:59.742Z,67.88
2023-03-30T01:29:36.699Z,67.85
2023-03-30T01:32:30.394Z,68.42
2023-03-30T01:35:15.775Z,68.89
2023-03-30T01:38:01.048Z,69.57
2023-03-30T01:40:27.611Z,69.96
2023-03-30T01:43:16.888Z,70.50
2023-03-30T01:45:53.509Z,70.78
2023-03-30T01:48:38.273Z,71.57
2023-03-30T01:51:12.182Z,72.05
2023-03-30T01:53:57.212Z,72.41
2023-03-30T01:56:27.592Z,72.73
2023-03-30T01:58:57.848Z,73.17
2023-03-30T02:01:26.273Z,73.31
2023-03-30T02:03:55.434Z,73.45
2023-03-30T02:06:43.181Z,73.81
2023-03-30T02:09:19.287Z,74.26
2023-03-30T02:11:49.293Z,74.39
2023-03-30T02:14:17.422Z,74.74
2023-03-30T02:16:49.457Z,75.30
2023-03-30T02:19:17.052Z,75.62
2023-03-30T02:21:44.143Z,75.84
2023-03-30T02:24:18.118Z,75.90
2023-03-30T02:26:49.000Z,76.49
2023-03-30T02:29:16.290Z,76.80
2023-03-30T02:31:44.097Z,77.20
2023-03-30T02:34:35.631Z,77.08
2023-03-30T02:37:25.977Z,77.06
2023-03-30T02:40:29.100Z,77.37
2023-03-30T02:42:55.563Z,76.88
2023-03-30T02:45:27.925Z,76.57
2023-03-30T02:47:57.471Z,76.29
2023-03-30T02:50:46.362Z,76.29
2023-03-30T02:53:47.581Z,76.00
2023-03-30T02:56:22.160Z,76.20
2023-03-30T02:59:38.152Z,76.27
2023-03-30T03:02:18.126Z,76.30
2023-03-30T03:04:46.379Z,76.27
2023-03-30T03:07:13.605Z,76.42
2023-03-30T03:09:41.167Z,76.45
2023-03-30T03:12:07.905Z,76.55
2023-03-30T03:14:34.451Z,76.44
2023-03-30T03:17:01.032Z,76.54
2023-03-30T03:19:27.595Z,76.72
2023-03-30T03:21:54.035Z,76.82
2023-03-30T03:24:20.744Z,77.08
2023-03-30T03:26:47.474Z,76.96
2023-03-30T03:29:14.032Z,76.76
2023-03-30T03:31:40.900Z,76.60
2023-03-30T03:34:07.534Z,76.87
2023-03-30T03:36:34.074Z,76.97
2023-03-30T03:39:00.598Z,77.34
2023-03-30T03:41:27.061Z,77.55
2023-03-30T03:43:53.606Z,77.89
2023-03-30T03:46:21.131Z,77.78
2023-03-30T03:48:48.010Z,78.43
2023-03-30T03:51:14.573Z,79.59
2023-03-30T03:53:41.506Z,82.26
2023-03-30T03:56:08.561Z,85.08
2023-03-30T03:58:35.366Z,87.23
2023-03-30T04:01:03.207Z,88.19
2023-03-30T04:03:30.024Z,89.29
2023-03-30T04:06:00.944Z,89.69
2023-03-30T04:08:28.673Z,90.25
2023-03-30T04:10:55.670Z,90.41
2023-03-30T04:13:22.287Z,90.32
2023-03-30T04:15:49.032Z,89.69
2023-03-30T04:18:15.701Z,89.65
2023-03-30T04:20:42.417Z,89.21
2023-03-30T04:23:09.843Z,88.94
2023-03-30T04:25:36.433Z,88.17
2023-03-30T04:28:05.015Z,88.16
2023-03-30T04:30:32.809Z,87.39
2023-03-30T04:33:05.368Z,87.58
2023-03-30T04:35:32.527Z,87.26
2023-03-30T04:38:00.078Z,86.83
2023-03-30T04:40:26.781Z,86.80
2023-03-30T04:42:53.428Z,86.62
2023-03-30T04:45:20.729Z,85.95
2023-03-30T04:47:47.815Z,85.86
2023-03-30T04:50:14.963Z,86.04
2023-03-30T04:52:41.486Z,85.33
2023-03-30T04:55:09.828Z,85.43
2023-03-30T04:57:36.299Z,85.47
2023-03-30T05:00:07.058Z,85.72
2023-03-30T05:02:33.803Z,85.99
2023-03-30T05:05:00.514Z,85.79
2023-03-30T05:07:27.466Z,85.99
2023-03-30T05:09:53.956Z,86.17
2023-03-30T05:12:20.557Z,86.30
2023-03-30T05:14:47.088Z,86.33
2023-03-30T05:17:13.826Z,86.80
2023-03-30T05:19:40.744Z,86.76
2023-03-30T05:22:07.250Z,87.23
2023-03-30T05:24:34.495Z,87.18
2023-03-30T05:27:02.274Z,87.31
2023-03-30T05:29:28.832Z,87.20
2023-03-30T05:31:55.369Z,86.91
2023-03-30T05:34:21.918Z,87.07
2023-03-30T05:36:48.437Z,87.03
2023-03-30T05:39:15.281Z,87.07
2023-03-30T05:41:41.825Z,86.91
2023-03-30T05:44:08.307Z,86.69
2023-03-30T05:46:35.059Z,86.48
2023-03-30T05:49:01.589Z,86.24
2023-03-30T05:51:28.429Z,85.94
2023-03-30T05:53:54.966Z,85.49
2023-03-30T05:56:23.668Z,85.63
2023-03-30T05:58:50.429Z,85.47
2023-03-30T06:01:17.020Z,85.66
2023-03-30T06:03:43.660Z,85.76
2023-03-30T06:06:10.926Z,85.39
2023-03-30T06:08:37.516Z,85.02
2023-03-30T06:11:04.857Z,85.02
2023-03-30T06:13:31.869Z,85.11
2023-03-30T06:15:59.663Z,84.94
2023-03-30T06:18:28.167Z,85.05
2023-03-30T06:20:54.665Z,84.90
2023-03-30T06:23:23.113Z,85.06
2023-03-30T06:25:53.069Z,85.19
2023-03-30T06:28:20.684Z,85.59
2023-03-30T06:30:49.135Z,85.78
2023-03-30T06:33:16.446Z,85.52
2023-03-30T06:35:50.794Z,86.20
2023-03-30T06:38:17.546Z,86.13
2023-03-30T06:40:44.074Z,85.93
2023-03-30T06:43:16.780Z,85.61
2023-03-30T06:45:44.306Z,85.60
2023-03-30T06:48:11.270Z,85.33
2023-03-30T06:50:38.755Z,85.72
2023-03-30T06:53:05.286Z,85.55
2023-03-30T06:55:32.595Z,85.29
2023-03-30T06:57:59.184Z,84.77
2023-03-30T07:00:25.886Z,84.93
2023-03-30T07:02:52.559Z,84.65
2023-03-30T07:05:24.852Z,84.49
2023-03-30T07:07:54.711Z,84.50
2023-03-30T07:10:22.110Z,84.71
2023-03-30T07:12:48.973Z,84.92
2023-03-30T07:15:15.630Z,84.70
2023-03-30T07:17:42.432Z,85.13
2023-03-30T07:20:10.761Z,85.15
2023-03-30T07:22:37.385Z,85.20
2023-03-30T07:25:04.707Z,85.26
2023-03-30T07:27:31.242Z,85.38
2023-03-30T07:30:04.609Z,85.03
2023-03-30T07:32:37.630Z,85.06
2023-03-30T07:35:04.454Z,85.46
2023-03-30T07:37:31.656Z,85.17
2023-03-30T07:39:59.216Z,85.01
2023-03-30T07:42:25.898Z,85.02
2023-03-30T07:44:52.453Z,84.99
2023-03-30T07:47:19.451Z,85.23
2023-03-30T07:49:46.054Z,85.25
2023-03-30T07:52:12.698Z,85.06
2023-03-30T07:54:39.415Z,85.40
2023-03-30T07:57:05.991Z,85.03
2023-03-30T07:59:33.068Z,85.13
2023-03-30T08:01:59.828Z,85.54
2023-03-30T08:04:27.914Z,85.11
2023-03-30T08:06:54.556Z,85.34
2023-03-30T08:09:21.363Z,85.26
2023-03-30T08:11:47.919Z,84.25
2023-03-30T08:14:14.468Z,83.79
2023-03-30T08:16:41.759Z,83.36
2023-03-30T08:19:08.641Z,82.87
2023-03-30T08:21:35.187Z,81.51
2023-03-30T08:24:02.141Z,79.64
2023-03-30T08:26:29.067Z,77.56
2023-03-30T08:28:58.733Z,76.24
2023-03-30T08:31:25.289Z,74.41
2023-03-30T08:33:52.341Z,72.99
2023-03-30T08:36:20.311Z,74.12
2023-03-30T08:38:46.870Z,72.63
2023-03-30T08:41:54.961Z,72.93
2023-03-30T08:44:40.738Z,72.33
2023-03-30T08:47:13.576Z,72.40
2023-03-30T08:49:50.574Z,73.28
2023-03-30T08:52:23.356Z,74.49
2023-03-30T08:54:52.128Z,74.97
2023-03-30T08:57:24.966Z,73.35
2023-03-30T09:00:02.146Z,72.14
2023-03-30T09:02:31.203Z,71.23
2023-03-30T09:05:22.460Z,71.61
2023-03-30T09:08:22.904Z,72.01
2023-03-30T09:10:54.049Z,72.71
2023-03-30T09:13:23.985Z,72.99
2023-03-30T09:15:59.655Z,73.79
2023-03-30T09:18:30.511Z,72.15
2023-03-30T09:21:01.622Z,70.74
2023-03-30T09:23:31.023Z,70.14
2023-03-30T09:26:03.107Z,69.12
2023-03-30T09:28:59.841Z,69.81
2023-03-30T09:32:16.092Z,71.05
2023-03-30T09:34:53.205Z,71.24
2023-03-30T09:37:24.071Z,70.90
2023-03-30T09:39:50.950Z,69.04
2023-03-30T09:42:48.215Z,67.01
2023-03-30T09:45:32.664Z,68.13
2023-03-30T09:48:08.688Z,67.27
2023-03-30T09:50:43.532Z,68.13
2023-03-30T09:53:30.517Z,69.60
2023-03-30T09:56:04.325Z,69.08
2023-03-30T09:58:35.288Z,69.94
2023-03-30T10:01:13.475Z,70.58
2023-03-30T10:03:41.972Z,69.78
2023-03-30T10:06:09.901Z,70.56
2023-03-30T10:08:48.640Z,70.53
2023-03-30T10:11:39.605Z,71.84
2023-03-30T10:14:07.818Z,70.60
2023-03-30T10:16:34.360Z,68.00
2023-03-30T10:19:16.883Z,68.21
2023-03-30T10:21:46.866Z,68.86
2023-03-30T10:24:22.859Z,66.39
2023-03-30T10:27:04.633Z,66.60
2023-03-30T10:29:31.180Z,65.01
2023-03-30T10:32:01.298Z,65.81
2023-03-30T10:34:35.760Z,66.69
2023-03-30T10:37:05.768Z,68.66
2023-03-30T10:39:34.718Z,67.65
2023-03-30T10:42:04.228Z,67.81
2023-03-30T10:44:32.934Z,68.53
2023-03-30T10:47:36.545Z,70.36
2023-03-30T10:50:17.883Z,70.69
2023-03-30T10:52:58.949Z,71.78
2023-03-30T10:55:29.722Z,72.89
2023-03-30T10:58:30.506Z,72.31
2023-03-30T11:01:15.348Z,72.60
2023-03-30T11:03:45.906Z,71.51
2023-03-30T11:06:26.133Z,72.05
2023-03-30T11:08:55.021Z,73.02
2023-03-30T11:11:33.324Z,73.26
2023-03-30T11:14:02.608Z,73.08
2023-03-30T11:17:07.363Z,72.41
2023-03-30T11:19:42.619Z,73.75
2023-03-30T11:22:23.082Z,75.59
2023-03-30T11:24:52.883Z,75.57
2023-03-30T11:27:26.893Z,75.53
2023-03-30T11:30:14.801Z,75.23
2023-03-30T11:32:49.292Z,75.10
2023-03-30T11:35:37.478Z,75.02
2023-03-30T11:38:19.733Z,74.55
2023-03-30T11:40:48.323Z,74.17
2023-03-30T11:43:16.921Z,75.01
2023-03-30T11:48:29.762Z,77.55
2023-03-30T11:51:25.564Z,79.68
2023-03-30T11:54:00.651Z,81.38
2023-03-30T11:56:47.087Z,82.08
2023-03-30T11:59:41.107Z,82.11
2023-03-30T12:02:23.443Z,82.34
2023-03-30T12:04:56.289Z,81.15
2023-03-30T12:07:28.993Z,82.08
2023-03-30T12:09:56.929Z,82.81
2023-03-30T12:12:42.064Z,82.93
2023-03-30T12:15:31.241Z,84.38
2023-03-30T12:18:09.475Z,84.42
2023-03-30T12:20:44.824Z,84.60
2023-03-30T12:23:22.647Z,84.42
2023-03-30T12:26:10.434Z,83.95
2023-03-30T12:29:26.226Z,82.34
2023-03-30T12:32:03.312Z,80.55
2023-03-30T12:34:38.244Z,78.58
2023-03-30T12:37:15.818Z,78.33
2023-03-30T12:39:56.325Z,78.30
2023-03-30T12:42:34.626Z,76.72
2023-03-30T12:45:21.390Z,76.44
2023-03-30T12:48:02.200Z,76.74
2023-03-30T12:50:56.539Z,75.50
2023-03-30T12:54:00.397Z,73.87
2023-03-30T12:56:48.851Z,74.43
2023-03-30T12:59:30.859Z,73.97
2023-03-30T13:02:01.171Z,72.76
2023-03-30T13:04:32.533Z,71.80
2023-03-30T13:07:07.485Z,70.00
2023-03-30T13:09:53.593Z,70.58
2023-03-30T13:12:39.718Z,71.24
2023-03-30T13:15:34.434Z,69.75
2023-03-30T13:18:00.959Z,69.42
2023-03-30T13:20:32.923Z,69.30
2023-03-30T13:23:00.446Z,70.74
2023-03-30T13:25:30.730Z,71.51
2023-03-30T13:27:58.881Z,71.80
2023-03-30T13:30:31.545Z,70.77
2023-03-30T13:33:19.283Z,70.06
2023-03-30T13:36:13.391Z,67.98
2023-03-30T13:39:01.305Z,67.19
2023-03-30T13:41:37.031Z,66.99
2023-03-30T13:44:51.729Z,67.16
2023-03-30T13:47:37.325Z,66.67
2023-03-30T13:50:16.529Z,67.65
2023-03-30T13:52:46.009Z,66.26
2023-03-30T13:55:38.762Z,65.47
2023-03-30T13:58:10.071Z,66.67
2023-03-30T14:00:57.553Z,67.02
2023-03-30T14:03:39.682Z,67.19
2023-03-30T14:06:21.405Z,66.25
2023-03-30T14:08:50.566Z,66.28
2023-03-30T14:11:20.606Z,66.73
2023-03-30T14:13:49.430Z,67.34
2023-03-30T14:16:22.136Z,67.79
2023-03-30T14:18:48.985Z,67.70
2023-03-30T14:21:24.128Z,69.21
2023-03-30T14:23:54.647Z,68.36
2023-03-30T14:26:26.791Z,68.35
2023-03-30T14:29:02.920Z,67.59
2023-03-30T14:31:39.034Z,69.27
2023-03-30T14:34:31.866Z,69.74
2023-03-30T14:37:04.707Z,70.11
2023-03-30T14:39:32.995Z,70.63
2023-03-30T14:42:01.588Z,69.95
2023-03-30T14:44:28.379Z,68.61
2023-03-30T14:46:56.098Z,68.55
2023-03-30T14:49:23.842Z,68.12
2023-03-30T14:52:01.365Z,67.11
2023-03-30T14:54:28.536Z,66.77
2023-03-30T14:56:59.178Z,66.10
2023-03-30T14:59:27.341Z,65.32
2023-03-30T15:01:55.629Z,65.32
2023-03-30T15:04:28.981Z,64.72
2023-03-30T15:06:55.810Z,65.24
2023-03-30T15:09:24.227Z,63.95
2023-03-30T15:11:54.971Z,64.33
2023-03-30T15:14:22.642Z,62.08
2023-03-30T15:16:53.658Z,63.87
2023-03-30T15:19:29.995Z,64.11
2023-03-30T15:22:00.159Z,64.53
2023-03-30T15:24:29.839Z,65.00
2023-03-30T15:27:01.704Z,64.40
2023-03-30T15:29:28.546Z,65.40
2023-03-30T15:32:00.212Z,64.82
2023-03-30T15:34:26.795Z,64.63
2023-03-30T15:36:54.519Z,63.41
2023-03-30T15:39:27.837Z,62.72
2023-03-30T15:41:57.827Z,63.02
2023-03-30T15:44:24.463Z,62.73
2023-03-30T15:46:55.212Z,63.14
2023-03-30T15:49:24.809Z,63.10
2023-03-30T15:51:56.138Z,63.14
2023-03-30T15:54:44.640Z,63.32
2023-03-30T15:57:13.225Z,62.40
2023-03-30T15:59:56.296Z,62.07
2023-03-30T16:02:32.359Z,62.77
2023-03-30T16:05:00.744Z,63.65
2023-03-30T16:07:29.310Z,62.91
2023-03-30T16:09:55.925Z,63.62
2023-03-30T16:12:26.442Z,63.70
2023-03-30T16:14:53.281Z,62.90
2023-03-30T16:17:20.183Z,62.55
2023-03-30T16:19:46.799Z,63.65
2023-03-30T16:22:14.446Z,64.31
2023-03-30T16:24:42.148Z,66.14
2023-03-30T16:27:11.679Z,65.23
2023-03-30T16:29:38.766Z,65.66
2023-03-30T16:32:05.544Z,65.13
2023-03-30T16:34:32.141Z,64.59
2023-03-30T16:36:58.698Z,64.32
2023-03-30T16:39:27.342Z,66.69
2023-03-30T16:41:54.868Z,66.34
2023-03-30T16:44:22.803Z,68.24
2023-03-30T16:46:50.171Z,66.92
2023-03-30T16:49:21.600Z,67.68
2023-03-30T16:51:48.183Z,67.13
2023-03-30T16:54:29.386Z,66.91
2023-03-30T16:56:58.568Z,68.08
2023-03-30T16:59:28.985Z,69.31
2023-03-30T17:01:55.665Z,70.07
2023-03-30T17:04:22.277Z,69.91
2023-03-30T17:06:49.320Z,70.63
2023-03-30T17:09:18.135Z,71.01
2023-03-30T17:11:46.483Z,72.07
2023-03-30T17:14:12.994Z,72.58
2023-03-30T17:16:40.347Z,72.63
2023-03-30T17:19:11.173Z,72.63
2023-03-30T17:21:37.707Z,73.39
2023-03-30T17:24:04.486Z,73.76
2023-03-30T17:26:30.980Z,74.46
2023-03-30T17:28:57.525Z,75.16
2023-03-30T17:31:24.040Z,75.95
2023-03-30T17:33:50.615Z,76.36
2023-03-30T17:36:19.727Z,76.45
2023-03-30T17:38:46.879Z,76.71
2023-03-30T17:41:14.451Z,76.84
2023-03-30T17:43:41.707Z,76.96
2023-03-30T17:46:08.358Z,77.26
2023-03-30T17:48:35.293Z,77.34
2023-03-30T17:51:02.053Z,77.50
2023-03-30T17:53:28.576Z,77.56
2023-03-30T17:55:55.590Z,77.60
2023-03-30T17:58:29.418Z,77.65
2023-03-30T18:00:56.001Z,77.98
2023-03-30T18:03:23.320Z,77.98
2023-03-30T18:05:50.598Z,78.03
2023-03-30T18:08:21.225Z,78.40
2023-03-30T18:10:49.763Z,78.50
2023-03-30T18:13:16.359Z,78.77
2023-03-30T18:15:45.370Z,78.85
2023-03-30T18:18:13.189Z,78.70
2023-03-30T18:20:42.269Z,78.66
2023-03-30T18:23:08.936Z,78.44
2023-03-30T18:25:35.522Z,78.65
2023-03-30T18:28:02.592Z,78.58
2023-03-30T18:30:39.069Z,78.41
2023-03-30T18:33:06.702Z,78.65
2023-03-30T18:35:34.851Z,78.85
2023-03-30T18:38:01.970Z,79.41
2023-03-30T18:40:37.726Z,79.77
2023-03-30T18:43:05.424Z,80.01
2023-03-30T18:45:34.068Z,80.03
2023-03-30T18:48:01.664Z,80.38
2023-03-30T18:50:37.279Z,80.35
2023-03-30T18:53:06.353Z,80.47
2023-03-30T18:55:35.338Z,80.48
2023-03-30T18:58:03.478Z,80.62
2023-03-30T19:00:31.567Z,80.59
2023-03-30T19:02:59.335Z,80.12
2023-03-30T19:05:28.002Z,80.30
2023-03-30T19:07:55.272Z,80.56
2023-03-30T19:10:27.524Z,80.51
2023-03-30T19:12:55.498Z,80.60
2023-03-30T19:15:35.866Z,80.67
2023-03-30T19:18:03.789Z,80.42
2023-03-30T19:20:33.111Z,80.56
2023-03-30T19:22:59.731Z,80.59
2023-03-30T19:25:27.953Z,80.60
2023-03-30T19:28:02.636Z,80.58
2023-03-30T19:30:34.816Z,80.85
2023-03-30T19:33:04.886Z,80.65
2023-03-30T19:35:31.901Z,80.73
2023-03-30T19:37:58.738Z,80.95
2023-03-30T19:40:25.874Z,80.55
2023-03-30T19:42:53.144Z,80.76
2023-03-30T19:45:21.360Z,80.74
2023-03-30T19:47:48.076Z,80.43
2023-03-30T19:50:17.996Z,80.30
2023-03-30T19:52:48.571Z,80.67
2023-03-30T19:55:15.441Z,80.58
2023-03-30T19:57:42.022Z,80.73
2023-03-30T20:00:15.756Z,80.71
2023-03-30T20:02:47.864Z,81.01
2023-03-30T20:05:15.623Z,81.38
2023-03-30T20:07:44.398Z,81.63
2023-03-30T20:10:11.893Z,81.83
2023-03-30T20:12:38.986Z,82.13
2023-03-30T20:15:06.745Z,82.04
2023-03-30T20:17:34.340Z,82.02
2023-03-30T20:20:07.103Z,82.49
2023-03-30T20:22:38.343Z,82.46
2023-03-30T20:25:07.379Z,82.75
2023-03-30T20:27:35.210Z,82.66
2023-03-30T20:30:02.334Z,82.98
2023-03-30T20:32:28.918Z,83.15
2023-03-30T20:34:55.590Z,83.40
2023-03-30T20:37:22.112Z,83.37
2023-03-30T20:39:50.470Z,83.13
2023-03-30T20:42:18.159Z,83.01
2023-03-30T20:44:50.386Z,83.38
2023-03-30T20:47:17.778Z,83.37
2023-03-30T20:49:44.860Z,83.11
2023-03-30T20:52:11.960Z,83.08
2023-03-30T20:54:38.463Z,83.09
2023-03-30T20:57:05.116Z,82.85
2023-03-30T20:59:31.905Z,82.77
2023-03-30T21:01:59.206Z,82.38
2023-03-30T21:04:27.349Z,82.40
2023-03-30T21:06:53.910Z,82.31
2023-03-30T21:09:20.638Z,82.10
2023-03-30T21:11:47.196Z,82.03
2023-03-30T21:14:13.998Z,82.27
2023-03-30T21:16:42.088Z,82.15
2023-03-30T21:19:09.510Z,82.34
2023-03-30T21:21:37.552Z,82.37
2023-03-30T21:24:08.880Z,82.05
2023-03-30T21:26:35.515Z,82.38
2023-03-30T21:29:02.044Z,82.47
2023-03-30T21:31:28.928Z,82.05
2023-03-30T21:33:55.549Z,82.20
2023-03-30T21:36:22.549Z,82.31
2023-03-30T21:38:49.299Z,82.80
2023-03-30T21:41:18.566Z,82.87
2023-03-30T21:43:47.230Z,83.01
2023-03-30T21:46:19.903Z,82.97
2023-03-30T21:48:47.156Z,82.93
2023-03-30T21:51:40.068Z,82.59
2023-03-30T21:54:07.654Z,82.47
2023-03-30T21:56:34.233Z,82.48
2023-03-30T21:59:00.830Z,82.11
2023-03-30T22:01:27.469Z,82.24
2023-03-30T22:03:54.691Z,82.24
2023-03-30T22:06:22.295Z,81.96
2023-03-30T22:08:49.356Z,82.00
2023-03-30T22:11:21.409Z,82.37
2023-03-30T22:13:48.966Z,82.09
2023-03-30T22:16:42.799Z,82.36
2023-03-30T22:19:09.561Z,82.08
2023-03-30T22:21:36.825Z,82.01
2023-03-30T22:24:07.547Z,82.17
2023-03-30T22:26:35.561Z,82.24
2023-03-30T22:29:02.287Z,82.36
2023-03-30T22:31:28.975Z,82.95
2023-03-30T22:33:56.545Z,82.64
2023-03-30T22:36:31.288Z,82.64
2023-03-30T22:38:59.414Z,82.64
2023-03-30T22:41:26.514Z,83.01
2023-03-30T22:43:57.609Z,82.85
2023-03-30T22:46:25.194Z,82.46
2023-03-30T22:48:52.441Z,82.89
2023-03-30T22:51:28.303Z,82.85
2023-03-30T22:53:58.636Z,82.41
2023-03-30T22:56:25.968Z,82.80
2023-03-30T22:58:52.764Z,82.73
2023-03-30T23:01:19.571Z,82.87
2023-03-30T23:03:47.546Z,83.05
2023-03-30T23:06:14.138Z,82.93
2023-03-30T23:08:40.786Z,83.36
2023-03-30T23:11:08.121Z,83.50
2023-03-30T23:13:37.336Z,83.11
2023-03-30T23:16:06.467Z,82.93
2023-03-30T23:18:33.944Z,83.30
2023-03-30T23:21:06.108Z,82.96
2023-03-30T23:23:34.447Z,83.11
2023-03-30T23:26:02.867Z,83.14
2023-03-30T23:28:30.712Z,83.28
2023-03-30T23:30:57.836Z,83.14
2023-03-30T23:33:24.829Z,83.23
2023-03-30T23:35:51.350Z,83.39
2023-03-30T23:38:17.901Z,83.68
2023-03-30T23:40:44.544Z,83.72
2023-03-30T23:43:11.056Z,83.43
2023-03-30T23:45:37.541Z,83.43
2023-03-30T23:48:04.179Z,83.23
2023-03-30T23:50:33.014Z,83.26
2023-03-30T23:52:59.525Z,83.15
2023-03-30T23:55:26.310Z,83.74
2023-03-30T23:57:52.817Z,85.48
